createdAt,value
2022-10-22T00:00:15.598Z,675.63
2022-10-22T00:02:43.288Z,673.80
2022-10-22T00:05:11.422Z,687.30
2022-10-22T00:07:38.832Z,693.50
2022-10-22T00:10:08.154Z,710.20
2022-10-22T00:12:35.500Z,662.80
2022-10-22T00:15:03.915Z,652.90
2022-10-22T00:17:30.996Z,657.22
2022-10-22T00:19:58.303Z,696.58
2022-10-22T00:22:25.340Z,693.08
2022-10-22T00:24:52.352Z,667.38
2022-10-22T00:27:19.335Z,720.55
2022-10-22T00:29:46.425Z,688.28
2022-10-22T00:32:15.276Z,670.60
2022-10-22T00:34:42.352Z,672.45
2022-10-22T00:37:09.429Z,695.28
2022-10-22T00:39:36.381Z,714.65
2022-10-22T00:42:03.644Z,737.08
2022-10-22T00:45:07.701Z,683.63
2022-10-22T00:47:52.492Z,724.08
2022-10-22T00:50:30.205Z,720.83
2022-10-22T00:52:58.695Z,714.45
2022-10-22T00:55:28.037Z,695.30
2022-10-22T00:57:56.963Z,717.13
2022-10-22T01:00:24.887Z,719.58
2022-10-22T01:02:53.585Z,692.13
2022-10-22T01:05:21.487Z,678.03
2022-10-22T01:07:52.361Z,709.15
2022-10-22T01:10:49.345Z,712.38
2022-10-22T01:16:07.286Z,728.97
2022-10-22T01:18:44.506Z,685.80
2022-10-22T01:21:34.039Z,724.70
2022-10-22T01:24:24.471Z,676.65
2022-10-22T01:27:10.293Z,702.90
2022-10-22T01:29:52.087Z,716.03
2022-10-22T01:32:23.738Z,698.60
2022-10-22T01:34:56.465Z,669.67
2022-10-22T01:37:28.720Z,655.20
2022-10-22T01:39:58.211Z,703.20
2022-10-22T01:42:25.278Z,654.92
2022-10-22T01:44:52.475Z,676.95
2022-10-22T01:47:53.444Z,631.70
2022-10-22T01:50:32.157Z,659.83
2022-10-22T01:53:28.631Z,662.33
2022-10-22T01:56:13.258Z,711.92
2022-10-22T01:59:11.537Z,650.83
2022-10-22T02:01:55.857Z,661.30
2022-10-22T02:04:33.971Z,688.78
2022-10-22T02:07:06.770Z,683.03
2022-10-22T02:09:35.057Z,683.72
2022-10-22T02:12:07.225Z,664.78
2022-10-22T02:14:38.414Z,667.30
2022-10-22T02:17:11.607Z,677.70
2022-10-22T02:19:42.320Z,715.83
2022-10-22T02:22:12.630Z,699.63
2022-10-22T02:24:39.658Z,703.22
2022-10-22T02:27:31.996Z,689.80
2022-10-22T02:30:10.569Z,684.35
2022-10-22T02:33:17.910Z,684.50
2022-10-22T02:35:46.000Z,672.42
2022-10-22T02:38:13.838Z,689.70
2022-10-22T02:40:41.481Z,689.97
2022-10-22T02:43:08.561Z,692.92
2022-10-22T02:45:35.806Z,660.08
2022-10-22T02:48:03.413Z,720.55
2022-10-22T02:50:30.584Z,683.40
2022-10-22T02:52:57.693Z,717.70
2022-10-22T02:55:24.996Z,704.33
2022-10-22T02:57:52.051Z,692.55
2022-10-22T03:00:19.311Z,700.17
2022-10-22T03:02:46.353Z,735.60
2022-10-22T03:05:14.121Z,692.65
2022-10-22T03:07:41.454Z,717.08
2022-10-22T03:10:09.400Z,737.90
2022-10-22T03:12:36.431Z,734.97
2022-10-22T03:15:03.792Z,729.03
2022-10-22T03:17:30.792Z,708.42
2022-10-22T03:19:57.803Z,739.17
2022-10-22T03:22:31.469Z,730.22
2022-10-22T03:25:04.649Z,733.90
2022-10-22T03:27:31.612Z,740.08
2022-10-22T03:29:59.655Z,720.08
2022-10-22T03:32:26.617Z,733.88
2022-10-22T03:34:53.765Z,765.72
2022-10-22T03:37:20.992Z,732.15
2022-10-22T03:39:48.080Z,719.33
2022-10-22T03:42:16.186Z,770.17
2022-10-22T03:44:43.644Z,746.08
2022-10-22T03:47:10.872Z,705.92
2022-10-22T03:49:37.908Z,697.83
2022-10-22T03:52:10.353Z,739.13
2022-10-22T03:57:10.407Z,751.55
2022-10-22T03:59:41.290Z,756.33
2022-10-22T04:02:09.602Z,743.20
2022-10-22T04:04:37.165Z,772.80
2022-10-22T04:07:05.916Z,752.60
2022-10-22T04:09:35.099Z,727.22
2022-10-22T04:12:02.507Z,769.25
2022-10-22T04:14:29.553Z,752.25
2022-10-22T04:16:56.680Z,779.78
2022-10-22T04:19:23.848Z,728.83
2022-10-22T04:21:50.810Z,752.92
2022-10-22T04:24:17.784Z,718.83
2022-10-22T04:26:44.815Z,751.25
2022-10-22T04:29:15.911Z,731.22
2022-10-22T04:31:43.677Z,771.08
2022-10-22T04:34:10.616Z,755.92
2022-10-22T04:36:37.669Z,733.15
2022-10-22T04:39:05.742Z,761.13
2022-10-22T04:41:38.738Z,756.55
2022-10-22T04:44:10.959Z,758.97
2022-10-22T04:46:42.254Z,785.63
2022-10-22T04:49:09.350Z,759.17
2022-10-22T04:51:36.304Z,771.92
2022-10-22T04:54:03.385Z,773.38
2022-10-22T04:56:32.180Z,742.95
2022-10-22T04:59:06.413Z,761.15
2022-10-22T05:01:43.468Z,777.08
2022-10-22T05:04:16.889Z,747.67
2022-10-22T05:06:44.502Z,734.80
2022-10-22T05:09:18.727Z,740.33
2022-10-22T05:11:49.673Z,762.33
2022-10-22T05:14:20.760Z,770.03
2022-10-22T05:16:48.713Z,717.13
2022-10-22T05:19:21.749Z,750.05
2022-10-22T05:21:48.746Z,786.15
2022-10-22T05:24:15.838Z,760.80
2022-10-22T05:26:42.769Z,779.13
2022-10-22T05:29:09.929Z,756.28
2022-10-22T05:31:36.979Z,773.03
2022-10-22T05:34:04.042Z,584.53
2022-10-22T05:36:31.068Z,706.33
2022-10-22T05:38:58.353Z,748.72
2022-10-22T05:41:27.164Z,727.88
2022-10-22T05:43:59.545Z,552.20
2022-10-22T05:46:29.877Z,601.85
2022-10-22T05:49:03.321Z,580.47
2022-10-22T05:51:33.782Z,580.33
2022-10-22T05:54:07.425Z,637.83
2022-10-22T05:56:35.081Z,614.10
2022-10-22T06:01:32.816Z,613.33
2022-10-22T06:04:03.979Z,656.33
2022-10-22T06:06:49.322Z,586.00
2022-10-22T06:09:28.215Z,450.77
2022-10-22T06:11:56.993Z,431.00
2022-10-22T06:14:24.745Z,461.77
2022-10-22T06:16:52.178Z,444.00
2022-10-22T06:19:21.495Z,442.45
2022-10-22T06:21:49.140Z,435.77
2022-10-22T06:24:16.651Z,445.58
2022-10-22T06:26:43.843Z,429.80
2022-10-22T06:29:11.278Z,478.75
2022-10-22T06:31:38.312Z,464.00
2022-10-22T06:34:10.150Z,466.33
2022-10-22T06:36:37.928Z,466.17
2022-10-22T06:39:05.783Z,484.70
2022-10-22T06:41:33.041Z,444.05
2022-10-22T06:44:00.073Z,430.33
2022-10-22T06:46:27.183Z,447.42
2022-10-22T06:49:04.213Z,457.40
2022-10-22T06:51:32.022Z,457.25
2022-10-22T06:53:59.255Z,457.83
2022-10-22T06:56:29.324Z,436.42
2022-10-22T06:58:58.341Z,432.13
2022-10-22T07:01:31.756Z,444.40
2022-10-22T07:03:59.139Z,416.63
2022-10-22T07:06:28.362Z,264.00
2022-10-22T07:08:59.939Z,260.63
2022-10-22T07:11:39.341Z,244.52
2022-10-22T07:14:06.460Z,250.68
2022-10-22T07:16:33.651Z,246.43
2022-10-22T07:19:04.098Z,266.48
2022-10-22T07:21:31.678Z,275.40
2022-10-22T07:23:59.345Z,264.52
2022-10-22T07:26:28.464Z,253.85
2022-10-22T07:28:55.606Z,267.00
2022-10-22T07:31:22.979Z,251.00
2022-10-22T07:33:49.901Z,234.05
2022-10-22T07:36:17.981Z,253.98
2022-10-22T07:38:54.244Z,265.30
2022-10-22T07:41:21.237Z,263.30
2022-10-22T07:43:48.183Z,250.48
2022-10-22T07:46:15.429Z,244.30
2022-10-22T07:48:42.607Z,241.50
2022-10-22T07:51:09.807Z,226.40
2022-10-22T07:53:37.156Z,237.20
2022-10-22T07:56:04.461Z,230.77
2022-10-22T07:58:31.522Z,226.32
2022-10-22T08:01:05.799Z,226.45
2022-10-22T08:03:33.555Z,249.07
2022-10-22T08:06:01.785Z,230.68
2022-10-22T08:08:30.840Z,229.77
2022-10-22T08:11:00.969Z,231.57
2022-10-22T08:13:30.571Z,230.65
2022-10-22T08:16:00.261Z,228.88
2022-10-22T08:18:28.401Z,223.57
2022-10-22T08:20:55.474Z,222.40
2022-10-22T08:23:26.000Z,243.18
2022-10-22T08:25:57.171Z,220.25
2022-10-22T08:28:24.485Z,218.30
2022-10-22T08:30:51.718Z,248.43
2022-10-22T08:33:18.766Z,247.80
2022-10-22T08:35:52.687Z,233.75
2022-10-22T08:38:20.279Z,220.82
2022-10-22T08:40:53.379Z,241.93
2022-10-22T08:43:45.410Z,210.55
2022-10-22T08:46:52.724Z,202.10
2022-10-22T08:51:53.176Z,198.13
2022-10-22T08:54:45.076Z,182.98
2022-10-22T08:57:27.509Z,191.75
2022-10-22T09:00:11.234Z,162.40
2022-10-22T09:02:56.603Z,170.75
2022-10-22T09:05:39.393Z,143.65
2022-10-22T09:08:12.761Z,140.85
2022-10-22T09:10:46.766Z,184.60
2022-10-22T09:13:19.472Z,307.95
2022-10-22T09:16:14.973Z,139.18
2022-10-22T09:19:22.855Z,132.15
2022-10-22T09:22:20.627Z,139.80
2022-10-22T09:24:57.323Z,148.90
2022-10-22T09:27:31.213Z,145.93
2022-10-22T09:29:58.484Z,461.30
2022-10-22T09:32:26.251Z,131.80
2022-10-22T09:34:58.273Z,147.02
2022-10-22T09:37:28.747Z,158.77
2022-10-22T09:39:58.830Z,156.13
2022-10-22T09:42:25.952Z,268.27
2022-10-22T09:44:59.566Z,97.82
2022-10-22T09:50:39.531Z,89.18
2022-10-22T09:53:12.233Z,69.25
2022-10-22T09:55:41.428Z,88.78
2022-10-22T09:58:13.608Z,120.45
2022-10-22T10:00:46.045Z,128.52
2022-10-22T10:03:29.071Z,198.23
2022-10-22T10:06:04.695Z,100.03
2022-10-22T10:08:33.244Z,151.23
2022-10-22T10:11:10.079Z,104.65
2022-10-22T10:14:38.565Z,87.93
2022-10-22T10:18:05.236Z,144.52
2022-10-22T10:20:56.565Z,129.55
2022-10-22T10:23:45.141Z,116.90
2022-10-22T10:26:20.117Z,140.05
2022-10-22T10:29:24.098Z,161.35
2022-10-22T10:32:57.970Z,158.27
2022-10-22T10:35:33.973Z,84.03
2022-10-22T10:41:37.102Z,112.30
2022-10-22T10:44:56.293Z,134.88
2022-10-22T10:48:13.287Z,121.05
2022-10-22T10:51:14.100Z,133.77
2022-10-22T10:54:21.706Z,131.90
2022-10-22T10:56:56.709Z,133.93
2022-10-22T10:59:23.620Z,143.53
2022-10-22T11:02:32.554Z,144.38
2022-10-22T11:05:16.575Z,119.70
2022-10-22T11:07:57.429Z,147.95
2022-10-22T11:10:35.359Z,116.50
2022-10-22T11:13:18.343Z,122.07
2022-10-22T11:16:15.864Z,168.60
2022-10-22T11:19:06.951Z,166.90
2022-10-22T11:21:53.311Z,162.75
2022-10-22T11:29:39.186Z,182.02
2022-10-22T11:34:48.284Z,642.63
2022-10-22T11:37:16.681Z,181.07
2022-10-22T11:40:15.168Z,171.07
2022-10-22T11:42:50.627Z,206.57
2022-10-22T11:45:17.679Z,169.60
2022-10-22T11:47:58.427Z,209.02
2022-10-22T11:50:52.783Z,160.57
2022-10-22T11:53:34.087Z,151.10
2022-10-22T11:56:07.200Z,129.25
2022-10-22T11:58:50.701Z,135.50
2022-10-22T12:01:28.935Z,152.82
2022-10-22T12:03:58.956Z,162.18
2022-10-22T12:06:53.338Z,153.95
2022-10-22T12:09:24.698Z,94.10
2022-10-22T12:11:52.302Z,131.13
2022-10-22T12:14:40.855Z,127.90
2022-10-22T12:17:18.867Z,133.48
2022-10-22T12:19:50.206Z,164.95
2022-10-22T12:22:33.682Z,150.50
2022-10-22T12:25:02.353Z,158.73
2022-10-22T12:27:40.439Z,180.85
2022-10-22T12:30:23.596Z,132.45
2022-10-22T12:32:57.885Z,166.27
2022-10-22T12:35:28.865Z,159.70
2022-10-22T12:38:00.587Z,185.10
2022-10-22T12:40:28.787Z,191.95
2022-10-22T12:43:01.987Z,174.20
2022-10-22T12:45:32.460Z,202.98
2022-10-22T12:48:27.659Z,103.93
2022-10-22T12:51:04.178Z,355.60
2022-10-22T12:53:39.338Z,171.68
2022-10-22T12:56:12.423Z,206.38
2022-10-22T12:59:00.706Z,169.60
2022-10-22T13:01:34.781Z,197.63
2022-10-22T13:04:27.010Z,174.85
2022-10-22T13:07:12.287Z,202.75
2022-10-22T13:09:41.420Z,525.67
2022-10-22T13:12:16.107Z,169.70
2022-10-22T13:14:45.889Z,156.75
2022-10-22T13:17:28.952Z,179.40
2022-10-22T13:19:55.878Z,285.75
2022-10-22T13:22:36.564Z,210.73
2022-10-22T13:25:16.002Z,274.25
2022-10-22T13:27:56.113Z,182.57
2022-10-22T13:30:37.544Z,175.50
2022-10-22T13:33:21.277Z,173.02
2022-10-22T13:35:48.791Z,196.48
2022-10-22T13:38:20.390Z,193.70
2022-10-22T13:40:48.220Z,216.10
2022-10-22T13:43:16.742Z,228.68
2022-10-22T13:45:45.917Z,244.07
2022-10-22T13:48:21.696Z,186.48
2022-10-22T13:50:52.361Z,623.42
2022-10-22T13:53:22.906Z,170.98
2022-10-22T13:55:50.349Z,185.95
2022-10-22T13:58:25.772Z,171.23
2022-10-22T14:01:00.825Z,161.65
2022-10-22T14:03:33.465Z,178.20
2022-10-22T14:06:00.927Z,152.65
2022-10-22T14:08:28.609Z,163.27
2022-10-22T14:10:56.143Z,148.65
2022-10-22T14:13:24.378Z,145.00
2022-10-22T14:15:52.722Z,165.52
2022-10-22T14:18:31.423Z,167.13
2022-10-22T14:21:04.711Z,155.82
2022-10-22T14:23:32.455Z,177.88
2022-10-22T14:26:00.741Z,159.68
2022-10-22T14:28:29.667Z,173.85
2022-10-22T14:30:59.022Z,164.02
2022-10-22T14:33:32.803Z,164.45
2022-10-22T14:36:00.805Z,254.52
2022-10-22T14:38:29.151Z,157.23
2022-10-22T14:40:57.422Z,118.47
2022-10-22T14:43:28.215Z,115.72
2022-10-22T14:45:55.999Z,128.82
2022-10-22T14:48:24.271Z,106.97
2022-10-22T14:50:52.007Z,85.88
2022-10-22T14:53:19.175Z,112.30
2022-10-22T14:55:47.415Z,99.63
2022-10-22T14:58:15.087Z,112.32
2022-10-22T15:00:43.075Z,86.22
2022-10-22T15:03:11.483Z,112.28
2022-10-22T15:05:46.356Z,164.52
2022-10-22T15:08:14.976Z,136.60
2022-10-22T15:10:42.204Z,163.57
2022-10-22T15:13:09.352Z,159.48
2022-10-22T15:15:39.917Z,192.20
2022-10-22T15:18:07.465Z,192.93
2022-10-22T15:20:34.591Z,183.15
2022-10-22T15:23:01.669Z,172.80
2022-10-22T15:25:28.796Z,193.80
2022-10-22T15:28:00.728Z,168.48
2022-10-22T15:30:34.587Z,177.68
2022-10-22T15:33:02.313Z,156.98
2022-10-22T15:35:29.437Z,179.85
2022-10-22T15:37:56.530Z,177.13
2022-10-22T15:40:23.579Z,185.25
2022-10-22T15:42:50.702Z,184.95
2022-10-22T15:45:17.677Z,201.13
2022-10-22T15:47:48.993Z,195.98
2022-10-22T15:50:16.746Z,197.25
2022-10-22T15:52:43.801Z,199.70
2022-10-22T15:57:43.832Z,210.75
2022-10-22T16:00:12.691Z,201.40
2022-10-22T16:02:39.831Z,233.52
2022-10-22T16:05:07.667Z,208.95
2022-10-22T16:07:34.727Z,731.90
2022-10-22T16:10:01.997Z,764.28
2022-10-22T16:12:29.129Z,533.05
2022-10-22T16:14:56.240Z,269.83
2022-10-22T16:17:24.384Z,226.02
2022-10-22T16:19:51.608Z,227.60
2022-10-22T16:22:18.613Z,253.55
2022-10-22T16:24:45.743Z,387.00
2022-10-22T16:27:12.815Z,780.38
2022-10-22T16:29:40.539Z,792.58
2022-10-22T16:32:08.122Z,798.30
2022-10-22T16:34:35.176Z,792.28
2022-10-22T16:37:02.578Z,833.13
2022-10-22T16:39:29.951Z,843.28
2022-10-22T16:41:57.040Z,828.58
2022-10-22T16:44:24.094Z,829.67
2022-10-22T16:46:51.168Z,792.70
2022-10-22T16:49:18.171Z,823.25
2022-10-22T16:51:45.323Z,874.38
2022-10-22T16:54:14.038Z,856.08
2022-10-22T16:56:41.143Z,854.50
2022-10-22T16:59:08.293Z,867.47
2022-10-22T17:01:40.329Z,834.97
2022-10-22T17:04:08.522Z,860.47
2022-10-22T17:06:35.446Z,883.40
2022-10-22T17:09:02.702Z,928.92
2022-10-22T17:11:34.671Z,896.15
2022-10-22T17:14:02.775Z,859.72
2022-10-22T17:16:30.034Z,890.97
2022-10-22T17:18:58.185Z,874.58
2022-10-22T17:21:25.661Z,855.40
2022-10-22T17:23:57.158Z,920.22
2022-10-22T17:26:26.661Z,918.70
2022-10-22T17:28:54.451Z,871.25
2022-10-22T17:31:39.243Z,881.95
2022-10-22T17:34:09.912Z,894.78
2022-10-22T17:36:37.295Z,837.33
2022-10-22T17:39:07.611Z,877.50
2022-10-22T17:41:37.295Z,845.20
2022-10-22T17:44:08.730Z,931.78
2022-10-22T17:46:35.916Z,888.05
2022-10-22T17:49:08.046Z,844.65
2022-10-22T17:51:35.166Z,899.50
2022-10-22T17:54:04.632Z,886.25
2022-10-22T17:56:34.424Z,924.28
2022-10-22T17:59:02.260Z,941.10
2022-10-22T18:01:33.559Z,941.50
2022-10-22T18:04:10.810Z,860.47
2022-10-22T18:06:38.153Z,914.30
2022-10-22T18:09:08.143Z,903.83
2022-10-22T18:11:36.547Z,912.88
2022-10-22T18:14:04.535Z,892.90
2022-10-22T18:16:31.903Z,880.13
2022-10-22T18:18:59.132Z,935.80
2022-10-22T18:21:29.197Z,911.33
2022-10-22T18:23:59.413Z,897.40
2022-10-22T18:26:27.166Z,871.85
2022-10-22T18:28:56.475Z,902.20
2022-10-22T18:31:26.296Z,932.80
2022-10-22T18:36:27.396Z,954.00
2022-10-22T18:39:02.428Z,940.92
2022-10-22T18:41:31.638Z,960.72
2022-10-22T18:44:05.327Z,890.10
2022-10-22T18:46:38.215Z,851.80
2022-10-22T18:49:07.094Z,938.85
2022-10-22T18:51:35.630Z,934.20
2022-10-22T18:54:05.978Z,948.33
2022-10-22T18:56:45.124Z,945.00
2022-10-22T18:59:20.690Z,866.05
2022-10-22T19:01:48.047Z,948.83
2022-10-22T19:04:15.504Z,967.85
2022-10-22T19:06:45.222Z,954.40
2022-10-22T19:09:15.289Z,922.97
2022-10-22T19:11:44.805Z,933.60
2022-10-22T19:14:13.919Z,895.65
2022-10-22T19:16:41.126Z,943.00
2022-10-22T19:19:08.366Z,889.60
2022-10-22T19:21:36.929Z,907.08
2022-10-22T19:24:04.170Z,910.72
2022-10-22T19:26:31.448Z,933.45
2022-10-22T19:28:59.988Z,943.15
2022-10-22T19:31:29.937Z,945.88
2022-10-22T19:33:59.437Z,919.50
2022-10-22T19:36:30.162Z,942.17
2022-10-22T19:38:58.573Z,942.10
2022-10-22T19:41:28.244Z,922.47
2022-10-22T19:43:57.489Z,906.30
2022-10-22T19:46:26.114Z,873.72
2022-10-22T19:48:56.183Z,959.10
2022-10-22T19:51:27.646Z,946.80
2022-10-22T19:54:01.143Z,915.13
2022-10-22T19:56:29.307Z,950.22
2022-10-22T19:58:56.838Z,988.35
2022-10-22T20:01:24.224Z,981.65
2022-10-22T20:03:52.297Z,971.20
2022-10-22T20:06:20.120Z,1009.00
2022-10-22T20:08:47.867Z,957.00
2022-10-22T20:11:22.500Z,951.97
2022-10-22T20:13:52.174Z,946.50
2022-10-22T20:16:24.504Z,1026.38
2022-10-22T20:18:52.777Z,930.95
2022-10-22T20:21:21.215Z,936.78
2022-10-22T20:23:52.186Z,897.00
2022-10-22T20:26:20.957Z,920.90
2022-10-22T20:28:47.942Z,875.03
2022-10-22T20:31:19.775Z,900.42
2022-10-22T20:33:48.482Z,923.33
2022-10-22T20:36:21.701Z,949.40
2022-10-22T20:38:50.484Z,894.80
2022-10-22T20:41:22.928Z,884.80
2022-10-22T20:43:52.089Z,910.90
2022-10-22T20:46:22.351Z,890.05
2022-10-22T20:48:57.597Z,949.05
2022-10-22T20:51:24.753Z,924.20
2022-10-22T20:53:51.811Z,943.15
2022-10-22T20:56:19.934Z,885.58
2022-10-22T20:58:48.702Z,878.47
2022-10-22T21:01:24.037Z,868.53
2022-10-22T21:03:53.126Z,897.92
2022-10-22T21:06:23.028Z,881.80
2022-10-22T21:08:51.532Z,866.80
2022-10-22T21:11:19.890Z,880.33
2022-10-22T21:13:47.099Z,887.50
2022-10-22T21:16:17.714Z,941.83
2022-10-22T21:18:46.059Z,912.58
2022-10-22T21:21:13.481Z,890.28
2022-10-22T21:23:40.481Z,877.58
2022-10-22T21:26:07.463Z,911.65
2022-10-22T21:28:36.740Z,896.03
2022-10-22T21:31:09.976Z,878.75
2022-10-22T21:33:39.187Z,898.97
2022-10-22T21:36:08.891Z,926.67
2022-10-22T21:38:37.629Z,908.30
2022-10-22T21:41:07.261Z,873.38
2022-10-22T21:43:36.510Z,915.33
2022-10-22T21:46:07.957Z,953.88
2022-10-22T21:48:36.915Z,921.28
2022-10-22T21:51:10.735Z,946.08
2022-10-22T21:53:38.468Z,957.67
2022-10-22T21:56:07.387Z,1001.05
2022-10-22T21:58:36.181Z,917.83
2022-10-22T22:01:04.468Z,932.85
2022-10-22T22:03:31.531Z,917.83
2022-10-22T22:06:05.031Z,936.15
2022-10-22T22:08:33.386Z,922.58
2022-10-22T22:11:04.549Z,962.30
2022-10-22T22:13:32.898Z,931.58
2022-10-22T22:16:02.245Z,941.80
2022-10-22T22:18:29.865Z,937.75
2022-10-22T22:20:58.165Z,933.45
2022-10-22T22:23:26.548Z,967.28
2022-10-22T22:25:53.474Z,1001.72
2022-10-22T22:28:20.401Z,971.08
2022-10-22T22:30:47.488Z,952.90
2022-10-22T22:33:14.409Z,929.38
2022-10-22T22:35:41.370Z,1028.05
2022-10-22T22:38:08.416Z,917.30
2022-10-22T22:40:39.050Z,925.70
2022-10-22T22:43:05.945Z,918.35
2022-10-22T22:45:33.111Z,930.13
2022-10-22T22:48:00.058Z,910.38
2022-10-22T22:50:27.130Z,930.40
2022-10-22T22:52:54.178Z,950.17
2022-10-22T22:55:21.120Z,930.15
2022-10-22T22:57:48.240Z,913.10
2022-10-22T23:00:15.763Z,900.20
2022-10-22T23:02:43.068Z,903.10
2022-10-22T23:05:10.255Z,907.05
2022-10-22T23:07:37.275Z,866.47
2022-10-22T23:10:04.438Z,903.30
2022-10-22T23:12:31.353Z,949.75
2022-10-22T23:15:01.981Z,904.88
2022-10-22T23:17:29.008Z,1018.05
2022-10-22T23:19:55.968Z,893.80
2022-10-22T23:22:22.891Z,915.83
2022-10-22T23:24:49.845Z,917.05
2022-10-22T23:27:16.795Z,898.88
2022-10-22T23:29:43.740Z,952.42
2022-10-22T23:32:14.500Z,886.20
2022-10-22T23:34:41.553Z,926.80
2022-10-22T23:37:11.584Z,946.17
2022-10-22T23:39:38.565Z,951.78
2022-10-22T23:42:05.555Z,937.72
2022-10-22T23:44:32.602Z,908.75
2022-10-22T23:46:59.551Z,902.55
2022-10-22T23:49:26.509Z,914.33
2022-10-22T23:51:53.577Z,904.30
2022-10-22T23:54:20.508Z,917.30
2022-10-22T23:56:47.615Z,921.38
